Time;durP1;ratioP1;P1;durP2;ratioP2;P2;SDS_P1;SDS_P2;PMS_P1;PMS_P2;Temp;Humidity;BMP_temperature;BMP_pressure;BME280_temperature;BME280_humidity;BME280_pressure;Samples;Min_cycle;Max_cycle;Signal;HPM_P1;HPM_P2
2022/04/09 00:02:19;;;;;;;8.73;7.68;;;10.30;76.40;;;;;;5074319;28;20017;-61
2022/04/09 00:04:45;;;;;;;9.30;7.90;;;10.30;75.70;;;;;;5066979;28;20384;-61
2022/04/09 00:07:10;;;;;;;9.63;7.70;;;10.30;75.60;;;;;;5069426;28;20033;-61
2022/04/09 00:09:36;;;;;;;7.85;7.05;;;10.20;75.40;;;;;;5066531;28;20487;-61
2022/04/09 00:12:02;;;;;;;10.30;7.60;;;10.20;75.40;;;;;;5075212;28;20029;-61
2022/04/09 00:14:28;;;;;;;9.32;7.50;;;10.20;75.30;;;;;;5075485;28;20031;-61
2022/04/09 00:16:54;;;;;;;8.45;7.22;;;10.20;75.30;;;;;;5071794;28;20024;-59
2022/04/09 00:19:19;;;;;;;8.07;6.60;;;10.20;75.30;;;;;;5071638;28;20392;-61
2022/04/09 00:21:46;;;;;;;8.35;7.10;;;10.20;75.30;;;;;;5074976;28;20032;-61
2022/04/09 00:24:12;;;;;;;7.00;6.25;;;10.20;75.30;;;;;;5072711;28;20115;-61
2022/04/09 00:26:38;;;;;;;7.38;6.57;;;10.20;75.40;;;;;;5074849;28;20062;-61
2022/04/09 00:29:04;;;;;;;8.43;6.30;;;10.20;76.20;;;;;;5070749;28;20045;-61
2022/04/09 00:31:30;;;;;;;7.00;5.80;;;10.20;75.50;;;;;;5067907;28;20100;-61
2022/04/09 00:33:55;;;;;;;8.15;6.50;;;10.20;75.40;;;;;;5074782;28;20104;-61
2022/04/09 00:36:21;;;;;;;6.68;5.53;;;10.20;75.20;;;;;;5071377;28;20123;-61
2022/04/09 00:38:47;;;;;;;6.45;5.57;;;10.20;75.20;;;;;;5074698;28;20024;-61
2022/04/09 00:41:12;;;;;;;7.07;6.30;;;10.20;75.20;;;;;;5068586;28;20025;-61
2022/04/09 00:43:40;;;;;;;9.70;6.70;;;10.20;75.20;;;;;;5065678;28;20028;-60
2022/04/09 00:46:05;;;;;;;8.18;6.53;;;10.20;74.90;;;;;;5068063;28;20100;-60
2022/04/09 00:48:31;;;;;;;6.70;5.93;;;10.20;74.60;;;;;;5073282;28;20078;-61
2022/04/09 00:50:57;;;;;;;7.43;6.15;;;10.10;74.40;;;;;;5070120;28;20101;-61
2022/04/09 00:53:23;;;;;;;6.93;6.22;;;10.10;74.40;;;;;;5074672;28;20063;-61
2022/04/09 00:58:38;;;;;;;8.73;6.53;;;10.10;74.60;;;;;;5067969;28;20060;-61
2022/04/09 01:01:04;;;;;;;6.95;6.22;;;10.00;74.30;;;;;;5068326;28;20067;-61
2022/04/09 01:03:33;;;;;;;7.38;5.75;;;10.00;74.20;;;;;;5074587;28;20024;-61
2022/04/09 01:05:59;;;;;;;9.35;6.30;;;10.00;74.10;;;;;;5060654;28;20379;-61
2022/04/09 01:08:25;;;;;;;7.03;5.80;;;10.00;74.20;;;;;;5072755;28;20025;-61
2022/04/09 01:10:51;;;;;;;7.13;5.50;;;9.90;74.00;;;;;;5065933;28;20082;-61
2022/04/09 01:13:17;;;;;;;6.57;5.40;;;9.90;74.10;;;;;;5073872;28;20340;-61
2022/04/09 01:15:43;;;;;;;5.80;5.20;;;9.80;74.10;;;;;;5069643;28;20032;-61
2022/04/09 01:18:09;;;;;;;6.10;5.00;;;9.80;74.20;;;;;;5072398;28;20028;-61
2022/04/09 01:20:35;;;;;;;6.35;5.15;;;9.70;74.20;;;;;;5074389;28;20422;-58
2022/04/09 01:23:01;;;;;;;6.10;5.00;;;9.70;74.30;;;;;;5073659;28;20028;-58
2022/04/09 01:25:26;;;;;;;8.25;4.90;;;9.70;74.40;;;;;;5064569;28;20416;-58
2022/04/09 01:27:52;;;;;;;6.57;4.90;;;9.70;74.50;;;;;;5072225;28;20029;-61
2022/04/09 01:30:19;;;;;;;6.30;4.55;;;9.80;74.70;;;;;;5065790;28;20029;-61
2022/04/09 01:32:45;;;;;;;7.65;5.55;;;9.80;74.60;;;;;;5060684;28;20472;-61
2022/04/09 01:35:11;;;;;;;5.32;4.40;;;9.80;74.60;;;;;;5072708;28;20040;-61
2022/04/09 01:37:37;;;;;;;6.75;4.78;;;9.80;74.10;;;;;;5073537;28;20044;-61
2022/04/09 01:40:03;;;;;;;5.80;4.90;;;9.80;73.80;;;;;;5073639;28;20396;-60
2022/04/09 01:42:28;;;;;;;6.25;4.53;;;9.90;73.80;;;;;;5065129;28;20020;-61
2022/04/09 01:44:54;;;;;;;6.25;5.00;;;9.90;73.60;;;;;;5073654;28;20070;-61
2022/04/09 01:47:20;;;;;;;6.30;4.90;;;9.90;73.20;;;;;;5073445;28;20108;-61
2022/04/09 01:49:46;;;;;;;5.90;5.03;;;10.00;73.00;;;;;;5064943;28;20468;-61
2022/04/09 01:52:11;;;;;;;6.75;5.32;;;10.00;72.70;;;;;;5072770;28;20020;-61
2022/04/09 01:54:37;;;;;;;7.13;5.13;;;10.00;72.50;;;;;;5072101;28;20375;-61
2022/04/09 01:57:03;;;;;;;5.88;4.70;;;10.00;72.30;;;;;;5073271;28;20027;-61
2022/04/09 01:59:29;;;;;;;5.13;4.20;;;10.00;72.20;;;;;;5073225;28;20078;-61
2022/04/09 02:01:54;;;;;;;6.05;4.65;;;10.10;72.00;;;;;;5073329;28;20032;-61
2022/04/09 02:04:20;;;;;;;6.03;4.90;;;10.10;71.80;;;;;;5072320;28;20025;-61
2022/04/09 02:06:47;;;;;;;6.50;4.68;;;10.10;71.70;;;;;;5065944;28;20056;-61
2022/04/09 02:09:14;;;;;;;6.20;5.00;;;10.10;71.50;;;;;;5073292;28;20027;-61
2022/04/09 02:11:41;;;;;;;6.95;5.13;;;10.10;71.50;;;;;;5073192;28;20089;-61
2022/04/09 02:14:11;;;;;;;6.03;4.80;;;10.10;71.40;;;;;;5067528;28;20447;-61
2022/04/09 02:16:38;;;;;;;6.43;5.03;;;10.10;71.30;;;;;;5068527;28;20362;-61
2022/04/09 02:19:04;;;;;;;6.75;5.10;;;10.10;71.30;;;;;;5070835;28;20542;-61
2022/04/09 02:21:30;;;;;;;6.05;4.65;;;10.10;71.20;;;;;;5072988;28;20395;-60
2022/04/09 02:23:56;;;;;;;6.28;5.03;;;10.10;71.10;;;;;;5071051;28;20013;-61
2022/04/09 02:26:22;;;;;;;6.43;4.68;;;10.00;71.20;;;;;;5073105;28;20029;-61
2022/04/09 02:28:49;;;;;;;5.65;4.53;;;10.00;71.20;;;;;;5072480;28;20027;-60
2022/04/09 02:31:20;;;;;;;8.27;5.13;;;9.90;71.20;;;;;;5064264;28;20029;-61
2022/04/09 02:33:46;;;;;;;7.05;6.13;;;9.90;71.30;;;;;;5069672;28;20017;-61
2022/04/09 02:36:12;;;;;;;8.50;6.72;;;9.90;71.40;;;;;;5064682;28;20064;-61
2022/04/09 02:38:42;;;;;;;7.75;6.95;;;9.80;71.40;;;;;;5067193;28;20036;-61
2022/04/09 02:41:10;;;;;;;7.50;6.80;;;9.80;71.40;;;;;;5068737;28;20096;-61
2022/04/09 02:43:37;;;;;;;8.55;7.10;;;9.80;71.30;;;;;;5072558;28;20016;-61
2022/04/09 02:46:03;;;;;;;7.20;6.50;;;9.80;71.40;;;;;;5072953;28;20451;-61
2022/04/09 02:48:29;;;;;;;7.07;5.90;;;9.80;71.40;;;;;;5072153;28;20033;-61
2022/04/09 02:50:55;;;;;;;7.57;6.78;;;9.80;71.30;;;;;;5072718;28;20441;-61
2022/04/09 02:53:20;;;;;;;7.05;5.47;;;9.80;71.30;;;;;;5072660;28;20032;-61
2022/04/09 02:55:46;;;;;;;7.78;5.28;;;9.80;71.30;;;;;;5072099;28;20387;-61
2022/04/09 02:58:12;;;;;;;6.35;5.30;;;9.80;71.30;;;;;;5071612;28;20501;-61
2022/04/09 03:00:38;;;;;;;6.57;5.22;;;9.80;71.20;;;;;;5070956;28;20031;-61
2022/04/09 03:03:04;;;;;;;7.15;5.70;;;9.80;71.10;;;;;;5072167;28;20029;-61
2022/04/09 03:05:30;;;;;;;11.35;6.82;;;9.80;71.10;;;;;;5072514;28;20029;-61
2022/04/09 03:07:57;;;;;;;8.10;6.78;;;9.80;71.10;;;;;;5058669;28;20077;-61
2022/04/09 03:10:23;;;;;;;7.05;6.05;;;9.90;71.00;;;;;;5072496;28;20043;-61
2022/04/09 03:12:48;;;;;;;7.03;5.00;;;9.90;70.80;;;;;;5072460;28;20032;-61
2022/04/09 03:15:14;;;;;;;5.50;4.60;;;9.80;70.70;;;;;;5070676;28;20036;-61
2022/04/09 03:17:41;;;;;;;6.40;4.88;;;9.80;70.60;;;;;;5072313;28;20025;-61
2022/04/09 03:20:07;;;;;;;16.20;7.55;;;9.80;70.40;;;;;;5065925;28;20028;-61
2022/04/09 03:22:33;;;;;;;20.60;9.80;;;9.80;70.40;;;;;;5065745;28;20031;-61
2022/04/09 03:24:59;;;;;;;17.00;8.10;;;9.90;70.60;;;;;;5071524;28;20028;-60
2022/04/09 03:27:26;;;;;;;24.10;9.88;;;9.90;70.20;;;;;;5072272;28;20572;-60
2022/04/09 03:29:53;;;;;;;50.90;21.45;;;10.00;70.30;;;;;;5072161;28;20025;-60
2022/04/09 03:32:19;;;;;;;56.42;21.33;;;10.00;70.20;;;;;;5056953;28;20086;-60
2022/04/09 03:34:45;;;;;;;49.20;18.35;;;10.10;69.80;;;;;;5071817;28;20100;-60
2022/04/09 03:37:11;;;;;;;31.77;15.05;;;10.10;69.80;;;;;;5074063;28;20135;-60
2022/04/09 03:39:37;;;;;;;30.80;12.27;;;10.20;69.60;;;;;;5075875;28;20074;-60
2022/04/09 03:42:05;;;;;;;29.50;12.95;;;10.20;69.40;;;;;;5075892;28;20122;-60
2022/04/09 03:44:30;;;;;;;21.55;9.98;;;10.20;69.20;;;;;;5076202;28;20029;-60
2022/04/09 03:47:00;;;;;;;24.52;10.90;;;10.30;69.20;;;;;;5075850;28;20036;-60
2022/04/09 03:49:26;;;;;;;21.75;10.32;;;10.30;69.00;;;;;;5065831;28;20480;-60
2022/04/09 03:51:51;;;;;;;11.52;6.35;;;10.40;68.90;;;;;;5075824;28;20103;-60
2022/04/09 03:54:17;;;;;;;13.20;6.43;;;10.40;68.70;;;;;;5075696;28;20032;-60
2022/04/09 03:56:43;;;;;;;8.82;5.65;;;10.50;68.70;;;;;;5075507;28;20048;-60
2022/04/09 03:59:09;;;;;;;9.77;5.68;;;10.50;68.60;;;;;;5075465;28;20467;-61
2022/04/09 04:01:38;;;;;;;7.63;5.63;;;10.50;68.60;;;;;;5072354;28;20031;-60
2022/04/09 04:04:05;;;;;;;6.60;4.80;;;10.60;68.70;;;;;;5075479;28;20032;-60
2022/04/09 04:06:31;;;;;;;5.45;4.35;;;10.60;68.60;;;;;;5073421;28;20056;-59
2022/04/09 04:08:57;;;;;;;6.40;3.70;;;10.70;68.40;;;;;;5072960;28;20122;-60
2022/04/09 04:11:23;;;;;;;6.32;4.00;;;10.70;68.50;;;;;;5066922;28;20032;-60
2022/04/09 04:13:49;;;;;;;4.75;3.92;;;10.70;67.70;;;;;;5075402;28;20028;-60
2022/04/09 04:16:15;;;;;;;6.95;3.78;;;10.70;67.70;;;;;;5075178;28;20465;-60
2022/04/09 04:18:41;;;;;;;6.60;3.72;;;10.80;67.50;;;;;;5075150;28;20039;-60
2022/04/09 04:21:08;;;;;;;4.78;3.25;;;10.80;67.30;;;;;;5075277;28;20020;-60
2022/04/09 04:23:34;;;;;;;5.78;4.10;;;10.90;67.00;;;;;;5066040;28;20036;-60
2022/04/09 04:25:59;;;;;;;4.55;3.90;;;10.90;66.70;;;;;;5073877;28;20017;-62
2022/04/09 04:28:25;;;;;;;5.90;4.07;;;11.00;66.50;;;;;;5069906;28;20043;-61
2022/04/09 04:30:50;;;;;;;5.07;3.70;;;11.00;66.40;;;;;;5073947;28;20033;-60
2022/04/09 04:33:16;;;;;;;4.15;3.63;;;11.00;66.20;;;;;;5074627;28;20108;-60
2022/04/09 04:35:42;;;;;;;4.43;3.47;;;10.90;66.20;;;;;;5074620;28;20502;-60
2022/04/09 04:38:08;;;;;;;5.32;3.90;;;10.90;66.60;;;;;;5074407;28;20110;-60
2022/04/09 04:40:33;;;;;;;5.82;4.40;;;10.80;66.90;;;;;;5073074;28;20112;-60
2022/04/09 04:42:59;;;;;;;7.72;5.22;;;10.80;67.10;;;;;;5074404;28;20100;-60
2022/04/09 04:45:25;;;;;;;9.85;5.40;;;10.70;67.40;;;;;;5074453;28;20579;-60
2022/04/09 04:47:50;;;;;;;9.45;5.38;;;10.80;67.60;;;;;;5072688;28;20094;-60
2022/04/09 04:50:17;;;;;;;6.55;4.75;;;10.80;67.80;;;;;;5074330;28;20029;-60
2022/04/09 04:52:43;;;;;;;6.43;4.32;;;11.00;67.70;;;;;;5074310;28;20031;-60
2022/04/09 04:55:10;;;;;;;6.10;4.40;;;11.20;67.40;;;;;;5074398;28;20044;-60
2022/04/09 04:57:46;;;;;;;7.45;4.80;;;11.50;66.90;;;;;;5061477;28;20244;-60
2022/04/09 05:00:15;;;;;;;8.43;4.70;;;11.70;66.40;;;;;;5071772;28;20074;-60
2022/04/09 05:02:41;;;;;;;9.30;5.65;;;11.80;65.90;;;;;;5063703;28;20068;-60
2022/04/09 05:05:07;;;;;;;7.90;5.97;;;11.90;65.40;;;;;;5074080;28;20087;-60
2022/04/09 05:07:52;;;;;;;10.20;6.53;;;12.00;65.20;;;;;;5073998;28;20056;-61
2022/04/09 05:10:20;;;;;;;7.60;4.72;;;12.10;65.10;;;;;;5073857;28;20020;-60
2022/04/09 05:12:47;;;;;;;7.80;4.72;;;12.10;64.60;;;;;;5072083;28;20012;-60
2022/04/09 05:15:15;;;;;;;7.18;4.70;;;12.20;64.10;;;;;;5073480;28;20085;-60
2022/04/09 05:17:41;;;;;;;5.47;3.63;;;12.20;64.10;;;;;;5073643;28;20024;-60
2022/04/09 05:20:09;;;;;;;4.68;3.28;;;12.30;64.20;;;;;;5073758;28;20035;-60
2022/04/09 05:22:41;;;;;;;4.07;3.03;;;12.40;64.10;;;;;;5074119;28;20020;-60
2022/04/09 05:25:08;;;;;;;3.50;2.95;;;12.40;63.70;;;;;;5073720;28;20104;-60
2022/04/09 05:27:34;;;;;;;4.90;3.20;;;12.50;63.50;;;;;;5073514;28;20020;-60
2022/04/09 05:30:00;;;;;;;3.83;3.03;;;12.60;63.40;;;;;;5072217;28;20027;-60
2022/04/09 05:32:25;;;;;;;3.85;3.15;;;12.70;63.10;;;;;;5057154;28;20422;-60
2022/04/09 05:34:51;;;;;;;4.05;3.30;;;12.90;62.40;;;;;;5071094;28;20507;-60
2022/04/09 05:37:17;;;;;;;4.72;3.40;;;13.10;62.00;;;;;;5073245;28;20068;-60
2022/04/09 05:39:43;;;;;;;3.97;2.80;;;13.20;61.80;;;;;;5073392;28;20510;-60
2022/04/09 05:42:10;;;;;;;3.67;3.05;;;13.30;61.30;;;;;;5073264;28;20021;-60
2022/04/09 05:44:36;;;;;;;4.65;3.38;;;13.30;61.10;;;;;;5073013;28;20016;-60
2022/04/09 05:47:01;;;;;;;5.03;3.38;;;13.40;60.90;;;;;;5071706;28;20066;-60
2022/04/09 05:49:28;;;;;;;5.60;3.63;;;13.50;60.60;;;;;;5073168;28;20429;-61
2022/04/09 05:51:53;;;;;;;5.05;3.22;;;13.60;60.20;;;;;;5071631;28;20400;-60
2022/04/09 05:54:19;;;;;;;4.28;2.92;;;13.60;60.20;;;;;;5073184;28;20029;-61
2022/04/09 05:56:45;;;;;;;4.18;3.17;;;13.60;60.00;;;;;;5072935;28;20082;-60
2022/04/09 05:59:11;;;;;;;5.45;3.00;;;13.60;60.00;;;;;;5072283;28;20415;-61
2022/04/09 06:01:36;;;;;;;3.97;3.03;;;13.60;59.80;;;;;;5059357;28;20071;-60
2022/04/09 06:04:02;;;;;;;3.60;2.65;;;13.60;59.80;;;;;;5070535;28;20584;-60
2022/04/09 06:06:28;;;;;;;4.55;3.15;;;13.60;59.70;;;;;;5068555;28;20024;-61
2022/04/09 06:08:54;;;;;;;4.55;2.97;;;13.70;59.70;;;;;;5072892;28;20064;-60
2022/04/09 06:11:20;;;;;;;3.67;2.92;;;13.80;59.50;;;;;;5072883;28;20493;-60
2022/04/09 06:13:46;;;;;;;4.40;3.17;;;13.80;59.20;;;;;;5072700;28;20028;-60
2022/04/09 06:16:15;;;;;;;3.20;2.78;;;13.90;59.10;;;;;;5072637;28;20484;-60
2022/04/09 06:18:41;;;;;;;4.22;2.80;;;13.90;58.80;;;;;;5072646;28;20036;-60
2022/04/09 06:21:08;;;;;;;4.13;2.72;;;13.90;58.60;;;;;;5069558;28;20012;-60
2022/04/09 06:23:34;;;;;;;3.63;2.60;;;14.00;58.40;;;;;;5059358;28;20034;-61
2022/04/09 06:25:59;;;;;;;4.05;2.70;;;14.00;58.50;;;;;;5072894;28;20515;-60
2022/04/09 06:28:26;;;;;;;3.97;2.80;;;14.00;58.80;;;;;;5072397;28;20024;-60
2022/04/09 06:30:52;;;;;;;4.07;2.78;;;14.00;58.10;;;;;;5062514;28;20060;-60
2022/04/09 06:33:18;;;;;;;3.45;2.60;;;14.10;57.90;;;;;;5067504;28;20074;-60
2022/04/09 06:35:44;;;;;;;4.28;2.50;;;14.10;58.00;;;;;;5072487;28;20029;-61
2022/04/09 06:38:09;;;;;;;3.42;2.60;;;14.20;57.70;;;;;;5070108;28;20552;-60
2022/04/09 06:40:35;;;;;;;3.83;2.70;;;14.20;57.80;;;;;;5066997;28;20036;-60
2022/04/09 06:43:01;;;;;;;3.88;2.58;;;14.20;58.40;;;;;;5072458;28;20048;-60
2022/04/09 06:45:26;;;;;;;3.72;2.50;;;14.30;57.30;;;;;;5072395;28;20622;-61
2022/04/09 06:47:52;;;;;;;2.83;2.40;;;14.40;57.10;;;;;;5072437;28;20149;-60
2022/04/09 06:50:18;;;;;;;3.55;2.30;;;14.40;56.90;;;;;;5071868;28;20384;-60
2022/04/09 06:52:44;;;;;;;4.47;2.40;;;14.50;56.40;;;;;;5072295;28;20036;-61
2022/04/09 06:55:10;;;;;;;2.42;2.00;;;14.60;55.90;;;;;;5069165;28;20391;-61
2022/04/09 06:57:41;;;;;;;2.40;2.20;;;14.60;55.50;;;;;;5063457;28;20025;-60
2022/04/09 07:00:11;;;;;;;3.83;2.30;;;14.60;55.40;;;;;;5068821;28;20133;-61
2022/04/09 07:02:36;;;;;;;4.55;2.45;;;14.60;55.50;;;;;;5062350;28;20115;-61
2022/04/09 07:05:03;;;;;;;2.25;2.05;;;14.70;55.60;;;;;;5072142;28;20044;-60
2022/04/09 07:07:29;;;;;;;4.18;2.30;;;14.80;55.60;;;;;;5072178;28;20353;-60
2022/04/09 07:10:02;;;;;;;3.25;2.13;;;14.80;55.20;;;;;;5072309;28;20021;-61
2022/04/09 07:12:28;;;;;;;2.65;2.20;;;14.80;55.20;;;;;;5075185;28;20025;-60
2022/04/09 07:14:54;;;;;;;4.22;2.58;;;14.90;55.00;;;;;;5076058;28;20062;-60
2022/04/09 07:17:20;;;;;;;3.53;2.50;;;14.90;55.00;;;;;;5076066;28;20446;-60
2022/04/09 07:19:46;;;;;;;2.92;1.83;;;14.90;54.90;;;;;;5075931;28;20024;-60
2022/04/09 07:22:12;;;;;;;1.92;1.63;;;15.00;54.40;;;;;;5076086;28;20013;-60
2022/04/09 07:24:38;;;;;;;4.55;2.13;;;15.00;54.10;;;;;;5075925;28;20054;-60
2022/04/09 07:27:04;;;;;;;3.03;2.60;;;15.00;53.90;;;;;;5075890;28;20027;-60
2022/04/09 07:29:30;;;;;;;4.60;2.10;;;15.10;53.60;;;;;;5069341;28;20031;-60
2022/04/09 07:31:55;;;;;;;2.47;1.98;;;15.10;53.40;;;;;;5075741;28;20032;-60
2022/04/09 07:34:21;;;;;;;2.35;1.80;;;15.10;53.20;;;;;;5074934;28;20028;-61
2022/04/09 07:36:47;;;;;;;3.85;2.20;;;15.20;53.10;;;;;;5062481;28;20053;-61
2022/04/09 07:39:13;;;;;;;2.35;1.90;;;15.20;52.80;;;;;;5068743;28;20033;-61
2022/04/09 07:41:39;;;;;;;2.15;1.80;;;15.20;53.00;;;;;;5069010;28;21926;-60
2022/04/09 07:44:05;;;;;;;2.50;2.00;;;15.20;53.00;;;;;;5071037;28;20025;-60
2022/04/09 07:46:43;;;;;;;2.25;2.05;;;15.20;52.80;;;;;;5064957;28;20024;-61
2022/04/09 07:49:09;;;;;;;2.90;2.05;;;15.20;52.50;;;;;;5072549;28;20028;-60
2022/04/09 07:51:40;;;;;;;2.85;2.05;;;15.20;52.40;;;;;;5070592;28;20605;-61
2022/04/09 07:54:09;;;;;;;3.10;2.40;;;15.30;52.50;;;;;;5070721;28;20480;-60
2022/04/09 07:56:41;;;;;;;3.05;2.28;;;15.30;52.60;;;;;;5070398;28;20024;-60
2022/04/09 07:59:07;;;;;;;1.92;1.65;;;15.30;52.40;;;;;;5049317;28;20033;-60
2022/04/09 08:01:32;;;;;;;4.25;2.13;;;15.40;52.40;;;;;;5061281;28;20098;-60
2022/04/09 08:03:58;;;;;;;3.10;2.10;;;15.40;52.30;;;;;;5062563;28;20052;-61
2022/04/09 08:06:24;;;;;;;2.83;1.90;;;15.50;52.00;;;;;;5062907;28;20043;-60
2022/04/09 08:08:49;;;;;;;1.98;1.75;;;15.50;52.10;;;;;;5062352;28;20071;-60
2022/04/09 08:11:15;;;;;;;2.63;2.00;;;15.60;51.90;;;;;;5058360;28;20025;-61
2022/04/09 08:13:40;;;;;;;2.47;2.00;;;15.60;51.80;;;;;;5063645;28;20031;-60
2022/04/09 08:16:06;;;;;;;2.10;1.80;;;15.60;51.80;;;;;;5065014;28;20047;-60
2022/04/09 08:18:39;;;;;;;4.05;1.75;;;15.70;51.80;;;;;;5071476;28;20033;-60
2022/04/09 08:21:06;;;;;;;1.80;1.63;;;15.80;51.50;;;;;;5064432;28;20028;-60
2022/04/09 08:23:32;;;;;;;2.30;2.10;;;15.80;51.30;;;;;;5062810;28;20502;-60
2022/04/09 08:25:57;;;;;;;3.50;2.33;;;15.90;51.30;;;;;;5058664;28;20021;-60
2022/04/09 08:28:25;;;;;;;2.22;2.00;;;15.90;51.30;;;;;;5062755;28;20032;-60
2022/04/09 08:30:51;;;;;;;2.22;2.03;;;16.00;51.00;;;;;;5066782;28;20025;-60
2022/04/09 08:33:17;;;;;;;3.05;1.98;;;16.00;50.50;;;;;;5071192;28;20094;-60
2022/04/09 08:35:43;;;;;;;3.97;2.15;;;16.10;50.50;;;;;;5058534;28;20025;-59
2022/04/09 08:38:09;;;;;;;2.95;2.08;;;16.10;50.40;;;;;;5063325;28;20048;-60
2022/04/09 08:40:37;;;;;;;3.47;2.08;;;16.10;50.60;;;;;;5070587;28;20078;-60
2022/04/09 08:43:04;;;;;;;2.95;2.28;;;16.20;50.50;;;;;;5065947;28;20021;-59
2022/04/09 08:45:35;;;;;;;5.43;2.55;;;16.20;50.40;;;;;;5072510;28;20378;-60
2022/04/09 08:48:02;;;;;;;3.53;2.50;;;16.30;50.30;;;;;;5067218;28;20025;-61
2022/04/09 08:50:28;;;;;;;3.95;2.35;;;16.30;50.50;;;;;;5068915;28;20480;-60
2022/04/09 08:52:54;;;;;;;3.22;2.00;;;16.40;50.60;;;;;;5063569;28;20166;-60
2022/04/09 08:55:20;;;;;;;2.65;2.20;;;16.50;50.40;;;;;;5059978;28;20308;-60
2022/04/09 08:57:48;;;;;;;4.00;2.45;;;16.50;50.30;;;;;;5071330;28;20035;-60
2022/04/09 09:00:17;;;;;;;3.80;2.05;;;16.60;50.40;;;;;;5070380;28;20037;-60
2022/04/09 09:03:14;;;;;;;2.88;2.08;;;16.60;50.30;;;;;;5057333;28;20419;-60
2022/04/09 09:05:45;;;;;;;3.33;2.17;;;16.70;50.20;;;;;;5062999;28;20369;-60
2022/04/09 09:08:12;;;;;;;5.70;2.50;;;16.70;50.30;;;;;;5071555;28;20028;-60
2022/04/09 09:10:38;;;;;;;3.35;2.38;;;16.70;50.20;;;;;;5064739;28;20017;-60
2022/04/09 09:13:11;;;;;;;3.58;2.20;;;16.70;50.10;;;;;;5063160;28;20032;-60
2022/04/09 09:15:52;;;;;;;4.43;2.47;;;16.80;50.30;;;;;;5067747;28;20025;-60
2022/04/09 09:18:23;;;;;;;3.30;2.38;;;16.80;50.20;;;;;;5067706;28;20028;-60
2022/04/09 09:20:57;;;;;;;3.30;2.28;;;16.80;50.30;;;;;;5070415;28;20028;-60
2022/04/09 09:23:24;;;;;;;5.68;2.60;;;16.90;50.50;;;;;;5072826;28;20029;-60
2022/04/09 09:25:51;;;;;;;3.13;2.38;;;16.90;50.40;;;;;;5068292;28;20063;-60
2022/04/09 09:28:32;;;;;;;4.63;1.98;;;16.90;50.20;;;;;;5064201;28;20025;-60
2022/04/09 09:31:00;;;;;;;8.77;2.60;;;16.90;50.30;;;;;;5066619;28;20071;-60
2022/04/09 09:37:24;;;;;;;4.60;2.60;;;17.00;50.40;;;;;;5071077;28;20412;-60
2022/04/09 09:39:58;;;;;;;3.78;2.40;;;17.00;50.50;;;;;;5070351;28;20028;-60
2022/04/09 09:42:58;;;;;;;4.00;2.70;;;17.10;50.70;;;;;;5069024;28;20029;-60
2022/04/09 09:45:46;;;;;;;5.38;2.63;;;17.10;50.50;;;;;;5058227;28;20029;-61
2022/04/09 09:48:29;;;;;;;4.90;2.60;;;17.20;50.50;;;;;;5067126;28;20028;-60
2022/04/09 09:50:59;;;;;;;5.00;3.00;;;17.20;50.20;;;;;;5057396;28;20017;-61
2022/04/09 09:53:37;;;;;;;5.85;2.97;;;17.30;50.40;;;;;;5066732;28;20246;-60
2022/04/09 09:56:35;;;;;;;5.97;2.88;;;17.40;50.40;;;;;;5072809;28;20155;-61
2022/04/09 09:59:07;;;;;;;4.53;2.80;;;17.40;50.30;;;;;;5072076;28;20111;-57
2022/04/09 10:01:48;;;;;;;5.47;2.50;;;17.50;50.40;;;;;;5069217;28;20063;-60
2022/04/09 10:04:14;;;;;;;5.43;2.85;;;17.50;50.30;;;;;;5069106;28;20051;-60
2022/04/09 10:06:42;;;;;;;7.65;2.88;;;17.60;50.30;;;;;;5067703;28;20029;-58
2022/04/09 10:09:09;;;;;;;7.75;3.47;;;17.70;50.20;;;;;;5063788;28;20502;-58
2022/04/09 10:11:50;;;;;;;4.10;2.90;;;17.70;49.80;;;;;;5071739;28;20033;-59
2022/04/09 10:14:21;;;;;;;6.28;2.70;;;17.80;49.80;;;;;;5073014;28;20609;-61
2022/04/09 10:16:51;;;;;;;9.18;3.17;;;17.80;49.70;;;;;;5070997;28;20032;-61
2022/04/09 10:19:18;;;;;;;6.53;3.30;;;17.90;49.70;;;;;;5069244;28;20075;-59
2022/04/09 10:21:47;;;;;;;11.57;3.40;;;18.00;49.90;;;;;;5071058;28;20025;-59
2022/04/09 10:24:23;;;;;;;8.38;4.03;;;18.00;49.60;;;;;;5072402;28;20498;-59
2022/04/09 10:26:49;;;;;;;17.13;5.00;;;18.10;49.80;;;;;;5072382;28;20017;-59
2022/04/09 10:29:15;;;;;;;9.68;4.13;;;18.10;49.70;;;;;;5071565;28;20498;-59
2022/04/09 10:31:51;;;;;;;8.90;3.85;;;18.20;49.70;;;;;;5071776;28;20033;-59
2022/04/09 10:34:17;;;;;;;7.05;3.38;;;18.30;50.10;;;;;;5072234;28;20371;-59
2022/04/09 10:36:46;;;;;;;7.50;3.70;;;18.30;50.00;;;;;;5062815;28;20032;-61
2022/04/09 10:39:23;;;;;;;8.05;3.25;;;18.40;50.00;;;;;;5070996;28;20032;-59
2022/04/09 10:41:50;;;;;;;11.55;4.18;;;18.50;50.00;;;;;;5071906;28;20025;-59
2022/04/09 10:44:36;;;;;;;8.75;3.20;;;18.50;49.90;;;;;;5071119;28;20027;-59
2022/04/09 10:47:04;;;;;;;8.43;3.30;;;18.60;50.00;;;;;;5071801;28;20020;-58
2022/04/09 10:49:30;;;;;;;6.35;3.30;;;18.60;50.00;;;;;;5057731;28;20029;-59
2022/04/09 10:52:16;;;;;;;9.73;3.63;;;18.60;50.00;;;;;;5059678;28;20033;-59
2022/04/09 10:55:05;;;;;;;6.45;3.65;;;18.70;50.10;;;;;;5061052;28;20020;-59
2022/04/09 10:57:41;;;;;;;12.40;3.85;;;18.80;50.60;;;;;;5070460;28;20028;-59
2022/04/09 11:00:09;;;;;;;9.00;3.50;;;18.80;50.30;;;;;;5070094;28;20468;-59
2022/04/09 11:02:35;;;;;;;14.50;3.80;;;18.90;50.20;;;;;;5071254;28;20021;-59
2022/04/09 11:05:22;;;;;;;10.35;3.60;;;19.00;50.20;;;;;;5072060;28;20376;-59
2022/04/09 11:08:26;;;;;;;12.60;3.80;;;19.10;50.40;;;;;;5067684;28;20067;-59
2022/04/09 11:10:52;;;;;;;11.27;4.38;;;19.10;50.40;;;;;;5056593;28;20451;-59
2022/04/09 11:13:29;;;;;;;16.08;4.40;;;19.10;50.80;;;;;;5067212;28;20029;-59
2022/04/09 11:15:55;;;;;;;12.73;4.13;;;19.20;50.80;;;;;;5069400;28;20021;-59
2022/04/09 11:18:21;;;;;;;10.40;3.90;;;19.20;50.80;;;;;;5065664;28;20021;-59
2022/04/09 11:20:47;;;;;;;6.30;3.40;;;19.30;51.00;;;;;;5058069;28;20044;-59
2022/04/09 11:23:19;;;;;;;10.32;4.35;;;19.30;51.00;;;;;;5068455;28;20020;-59
2022/04/09 11:25:46;;;;;;;12.48;3.92;;;19.30;50.90;;;;;;5068139;28;20337;-59
2022/04/09 11:28:13;;;;;;;8.48;4.13;;;19.30;51.10;;;;;;5055072;28;20111;-59
2022/04/09 11:31:00;;;;;;;11.50;3.83;;;19.40;51.40;;;;;;5064022;28;20021;-59
2022/04/09 11:33:26;;;;;;;15.60;4.78;;;19.40;51.50;;;;;;5057930;28;20017;-59
2022/04/09 11:35:53;;;;;;;16.83;3.97;;;19.50;52.20;;;;;;5066738;28;20039;-59
2022/04/09 11:38:18;;;;;;;14.75;4.13;;;19.50;51.80;;;;;;5054601;28;20419;-60
2022/04/09 11:40:47;;;;;;;10.50;3.72;;;19.60;51.90;;;;;;5061477;28;20032;-59
2022/04/09 11:43:18;;;;;;;10.10;3.72;;;19.70;52.00;;;;;;5063041;28;20065;-60
2022/04/09 11:45:44;;;;;;;11.73;3.70;;;19.70;51.90;;;;;;5058002;28;20029;-59
2022/04/09 11:48:16;;;;;;;18.45;4.60;;;19.80;52.10;;;;;;5063881;28;20052;-59
2022/04/09 11:50:42;;;;;;;15.45;4.13;;;19.90;52.30;;;;;;5068580;28;20009;-59
2022/04/09 11:53:09;;;;;;;11.60;4.20;;;20.00;52.40;;;;;;5070401;28;20025;-59
2022/04/09 11:55:35;;;;;;;9.43;4.82;;;20.00;52.20;;;;;;5053243;28;20032;-59
2022/04/09 11:58:01;;;;;;;12.18;4.55;;;20.10;52.20;;;;;;5064344;28;20043;-59
2022/04/09 12:00:27;;;;;;;14.32;4.68;;;20.20;52.50;;;;;;5059314;28;20645;-60
2022/04/09 12:02:53;;;;;;;12.73;4.88;;;20.30;52.50;;;;;;5064707;28;20025;-59
2022/04/09 12:05:19;;;;;;;16.60;4.45;;;20.40;52.80;;;;;;5062400;28;20028;-60
2022/04/09 12:07:47;;;;;;;15.25;4.97;;;20.40;52.70;;;;;;5062597;28;20029;-60
2022/04/09 12:10:27;;;;;;;18.48;6.05;;;20.50;52.50;;;;;;5057369;28;20447;-59
2022/04/09 12:12:57;;;;;;;22.42;7.05;;;20.50;52.20;;;;;;5062745;28;20090;-59
2022/04/09 12:15:31;;;;;;;21.15;9.18;;;20.60;52.20;;;;;;5062342;28;20029;-59
2022/04/09 12:17:57;;;;;;;16.85;8.25;;;20.60;51.90;;;;;;5070054;28;20075;-59
2022/04/09 12:20:32;;;;;;;15.25;6.72;;;20.60;52.10;;;;;;5060588;28;20035;-60
2022/04/09 12:22:59;;;;;;;9.77;5.20;;;20.60;51.80;;;;;;5068092;28;20074;-60
2022/04/09 12:25:39;;;;;;;8.90;4.50;;;20.60;51.70;;;;;;5063082;28;20059;-59
2022/04/09 12:28:18;;;;;;;12.60;4.50;;;20.70;51.40;;;;;;5070200;28;20036;-59
2022/04/09 12:30:47;;;;;;;10.90;4.63;;;20.70;51.50;;;;;;5066158;28;20032;-60
2022/04/09 12:33:13;;;;;;;9.45;4.45;;;20.70;51.40;;;;;;5055340;28;20028;-60
2022/04/09 12:35:39;;;;;;;10.30;4.68;;;20.70;51.40;;;;;;5058002;28;20033;-59
2022/04/09 12:38:06;;;;;;;13.77;5.35;;;20.70;51.50;;;;;;5067251;28;20044;-59
2022/04/09 12:40:32;;;;;;;11.85;5.78;;;20.70;51.40;;;;;;5064507;28;20228;-59
2022/04/09 12:42:59;;;;;;;8.13;4.00;;;20.70;51.50;;;;;;5059156;28;20395;-60
2022/04/09 12:45:27;;;;;;;8.65;4.32;;;20.80;51.50;;;;;;5056312;28;20609;-59
2022/04/09 12:47:56;;;;;;;9.48;4.18;;;20.80;51.50;;;;;;5060285;28;20048;-60
2022/04/09 12:50:24;;;;;;;8.13;3.95;;;20.80;51.50;;;;;;5061180;28;20036;-59
2022/04/09 12:52:51;;;;;;;7.63;4.88;;;20.90;51.50;;;;;;5065110;28;20033;-60
2022/04/09 12:55:18;;;;;;;12.20;4.30;;;20.90;51.60;;;;;;5060543;28;20021;-60
2022/04/09 12:57:44;;;;;;;8.38;3.83;;;20.90;51.40;;;;;;5069053;28;20035;-60